Time;durP1;ratioP1;P1;durP2;ratioP2;P2;SDS_P1;SDS_P2;PMS_P1;PMS_P2;Temp;Humidity;BMP_temperature;BMP_pressure;BME280_temperature;BME280_humidity;BME280_pressure;Samples;Min_cycle;Max_cycle;Signal;HPM_P1;HPM_P2
2023/05/24 00:00:15;;;;;;;9.40;9.10;;;11.60;99.90;;;;;;5087190;28;20264;-89
2023/05/24 00:02:45;;;;;;;9.03;8.83;;;11.60;99.90;;;;;;5087540;28;20230;-88
2023/05/24 00:05:15;;;;;;;9.33;9.03;;;11.60;99.90;;;;;;5087546;28;20229;-89
2023/05/24 00:07:45;;;;;;;9.43;9.13;;;11.50;99.90;;;;;;5087498;28;20255;-88
2023/05/24 00:10:19;;;;;;;9.40;9.10;;;11.40;99.90;;;;;;5088048;28;20337;-88
2023/05/24 00:12:47;;;;;;;9.60;9.30;;;11.40;99.90;;;;;;5087203;28;20233;-89
2023/05/24 00:15:14;;;;;;;9.80;9.50;;;11.40;99.90;;;;;;5087436;28;20218;-88
2023/05/24 00:17:43;;;;;;;9.63;9.33;;;11.40;99.90;;;;;;5086773;28;20230;-88
2023/05/24 00:20:22;;;;;;;9.53;9.23;;;11.40;99.90;;;;;;5086590;28;20256;-89
2023/05/24 00:22:51;;;;;;;9.00;8.80;;;11.40;99.90;;;;;;5086832;28;20222;-88
2023/05/24 00:25:30;;;;;;;9.50;9.20;;;11.40;99.90;;;;;;5086453;28;20282;-89
2023/05/24 00:27:58;;;;;;;9.80;9.50;;;11.30;99.90;;;;;;5086077;28;20236;-88
2023/05/24 00:30:29;;;;;;;9.77;9.47;;;11.30;99.90;;;;;;5085385;28;20242;-89
2023/05/24 00:32:58;;;;;;;10.00;9.70;;;11.30;99.90;;;;;;5086119;28;20325;-89
2023/05/24 00:35:26;;;;;;;10.17;9.87;;;11.20;99.90;;;;;;5086261;28;20292;-89
2023/05/24 00:38:01;;;;;;;10.00;9.70;;;11.20;99.90;;;;;;5085845;28;20226;-88
2023/05/24 00:40:35;;;;;;;9.70;9.40;;;11.20;99.90;;;;;;5085818;28;20233;-89
2023/05/24 00:43:03;;;;;;;9.87;9.57;;;11.30;99.90;;;;;;5086252;28;20312;-89
2023/05/24 00:45:33;;;;;;;9.90;9.60;;;11.30;99.90;;;;;;5085817;28;20230;-89
2023/05/24 00:48:03;;;;;;;9.80;9.50;;;11.30;99.90;;;;;;5086039;28;20345;-88
2023/05/24 00:50:32;;;;;;;9.80;9.50;;;11.20;99.90;;;;;;5084711;28;20249;-88
2023/05/24 00:53:03;;;;;;;9.90;9.60;;;11.20;99.90;;;;;;5085681;28;20249;-88
2023/05/24 00:55:42;;;;;;;9.20;8.90;;;11.20;99.90;;;;;;5085853;28;20234;-88
2023/05/24 00:58:25;;;;;;;9.23;8.93;;;11.10;99.90;;;;;;5086240;28;20268;-88
2023/05/24 01:00:56;;;;;;;9.17;8.93;;;11.20;99.90;;;;;;5085356;28;20238;-89
2023/05/24 01:03:38;;;;;;;9.60;9.30;;;11.10;99.90;;;;;;5086021;28;20305;-89
2023/05/24 01:06:14;;;;;;;9.70;9.40;;;11.00;99.90;;;;;;5084873;28;20300;-89
2023/05/24 01:09:26;;;;;;;9.80;9.50;;;11.00;99.90;;;;;;5086092;28;20232;-88
2023/05/24 01:12:14;;;;;;;10.27;9.97;;;11.00;99.90;;;;;;5085926;28;20230;-89
2023/05/24 01:15:02;;;;;;;10.10;9.80;;;11.00;99.90;;;;;;5085124;28;20257;-89
2023/05/24 01:17:38;;;;;;;9.93;9.63;;;11.10;99.90;;;;;;5084815;28;20241;-89
2023/05/24 01:20:09;;;;;;;10.40;10.10;;;11.00;99.90;;;;;;5084958;28;20305;-88
2023/05/24 01:23:30;;;;;;;10.40;10.10;;;11.00;99.90;;;;;;5085450;28;20292;-89
2023/05/24 01:26:25;;;;;;;10.27;9.97;;;11.00;99.90;;;;;;5102609;28;20218;-88
2023/05/24 01:29:04;;;;;;;10.70;10.40;;;11.00;99.90;;;;;;5101897;28;20198;-87
2023/05/24 01:31:34;;;;;;;10.57;10.27;;;10.90;99.90;;;;;;5090426;28;20312;-89
2023/05/24 01:34:05;;;;;;;10.07;9.77;;;10.90;99.90;;;;;;5085395;28;20226;-88
2023/05/24 01:36:32;;;;;;;10.27;9.97;;;10.90;99.90;;;;;;5084929;28;20222;-89
2023/05/24 01:39:01;;;;;;;10.53;10.23;;;10.90;99.90;;;;;;5084589;28;20230;-89
2023/05/24 01:41:42;;;;;;;10.40;10.10;;;10.90;99.90;;;;;;5085252;28;20240;-88
2023/05/24 01:44:27;;;;;;;10.57;10.27;;;10.90;99.90;;;;;;5085194;28;20236;-88
2023/05/24 01:47:05;;;;;;;10.40;10.10;;;10.90;99.90;;;;;;5084965;28;20225;-87
2023/05/24 01:49:44;;;;;;;10.50;10.20;;;10.90;99.90;;;;;;5084569;28;20229;-88
2023/05/24 01:55:00;;;;;;;10.00;9.70;;;10.90;99.90;;;;;;5083415;28;20276;-89
2023/05/24 01:57:32;;;;;;;9.80;9.50;;;10.80;99.90;;;;;;5085308;28;20296;-88
2023/05/24 02:00:07;;;;;;;10.00;9.70;;;10.80;99.90;;;;;;5085513;28;20288;-89
2023/05/24 02:02:37;;;;;;;9.80;9.50;;;10.70;99.90;;;;;;5085523;28;20234;-89
2023/05/24 02:05:06;;;;;;;10.20;9.90;;;10.80;99.90;;;;;;5089065;28;20234;-88
2023/05/24 02:07:36;;;;;;;10.00;9.70;;;10.80;99.90;;;;;;5085869;28;20265;-89
2023/05/24 02:10:06;;;;;;;9.97;9.67;;;10.80;99.90;;;;;;5085157;28;20233;-89
2023/05/24 02:12:39;;;;;;;9.83;9.53;;;10.80;99.90;;;;;;5084775;28;20230;-89
2023/05/24 02:15:15;;;;;;;9.80;9.50;;;10.80;99.90;;;;;;5085113;28;20253;-89
2023/05/24 02:17:46;;;;;;;9.63;9.33;;;10.80;99.90;;;;;;5087243;28;20307;-87
2023/05/24 02:20:16;;;;;;;9.87;9.57;;;10.80;99.90;;;;;;5090275;28;20234;-89
2023/05/24 02:22:43;;;;;;;9.73;9.43;;;10.90;99.90;;;;;;5085571;28;20246;-88
2023/05/24 02:25:17;;;;;;;10.00;9.70;;;10.90;99.90;;;;;;5084877;28;20236;-88
2023/05/24 02:27:51;;;;;;;10.00;9.70;;;11.00;99.90;;;;;;5085127;28;20222;-88
2023/05/24 02:30:26;;;;;;;10.00;9.70;;;11.00;99.90;;;;;;5084442;28;20272;-89
2023/05/24 02:33:00;;;;;;;9.70;9.40;;;11.00;99.90;;;;;;5084171;28;20226;-89
2023/05/24 02:35:28;;;;;;;9.60;9.30;;;11.00;99.90;;;;;;5084417;28;20221;-89
2023/05/24 02:37:57;;;;;;;9.47;9.17;;;11.00;99.90;;;;;;5083641;28;20223;-89
2023/05/24 02:40:28;;;;;;;9.17;8.90;;;11.10;99.90;;;;;;5083355;28;20276;-89
2023/05/24 02:46:44;;;;;;;9.10;8.90;;;11.00;99.90;;;;;;5023903;28;20242;-89
2023/05/24 02:49:14;;;;;;;9.47;9.17;;;11.00;99.90;;;;;;5077687;28;20288;-88
2023/05/24 02:51:43;;;;;;;9.23;8.93;;;11.00;99.90;;;;;;5063229;28;20211;-88
2023/05/24 02:54:14;;;;;;;9.33;9.03;;;10.90;99.90;;;;;;5073477;28;20226;-88
2023/05/24 02:56:43;;;;;;;8.90;8.70;;;10.90;99.90;;;;;;5083845;28;20329;-89
2023/05/24 02:59:12;;;;;;;9.10;8.90;;;10.90;99.90;;;;;;5084143;28;20226;-88
2023/05/24 03:01:50;;;;;;;9.00;8.80;;;10.90;99.90;;;;;;5084384;28;20242;-88
2023/05/24 03:04:19;;;;;;;9.23;8.93;;;10.90;99.90;;;;;;5083669;28;20260;-88
2023/05/24 03:06:49;;;;;;;9.07;8.87;;;10.90;99.90;;;;;;5087924;28;20217;-88
2023/05/24 03:09:18;;;;;;;9.13;8.90;;;10.90;99.90;;;;;;5100275;28;20226;-87
2023/05/24 03:11:48;;;;;;;8.97;8.77;;;10.80;99.90;;;;;;5100144;28;20278;-87
2023/05/24 03:14:19;;;;;;;8.80;8.60;;;10.80;99.90;;;;;;5084471;28;20233;-88
2023/05/24 03:16:49;;;;;;;10.20;9.90;;;10.80;99.90;;;;;;5093778;28;20219;-87
2023/05/24 03:19:17;;;;;;;9.73;9.43;;;10.90;99.90;;;;;;5099703;28;20240;-87
2023/05/24 03:21:45;;;;;;;9.77;9.47;;;11.00;99.90;;;;;;5099115;28;20271;-87
2023/05/24 03:24:15;;;;;;;10.13;9.83;;;10.90;99.90;;;;;;5091300;28;20237;-88
2023/05/24 03:26:44;;;;;;;10.07;9.77;;;10.90;99.90;;;;;;5086845;28;20535;-89
2023/05/24 03:29:14;;;;;;;10.30;10.00;;;11.00;99.90;;;;;;5088241;28;20226;-89
2023/05/24 03:31:43;;;;;;;10.00;9.70;;;11.00;99.90;;;;;;5085905;28;20249;-88
2023/05/24 03:34:21;;;;;;;10.10;9.80;;;11.00;99.90;;;;;;5076355;28;20269;-88
2023/05/24 03:36:51;;;;;;;10.33;10.03;;;10.90;99.90;;;;;;5063704;28;20235;-89
2023/05/24 03:39:21;;;;;;;10.30;10.00;;;10.90;99.90;;;;;;5062647;28;20276;-88
2023/05/24 03:41:49;;;;;;;10.30;10.00;;;10.80;99.90;;;;;;5062466;28;20330;-88
2023/05/24 03:44:19;;;;;;;10.13;9.83;;;10.80;99.90;;;;;;5062387;28;20329;-88
2023/05/24 03:46:48;;;;;;;10.30;10.00;;;10.80;99.90;;;;;;5062475;28;20253;-88
2023/05/24 03:49:45;;;;;;;10.10;9.80;;;10.70;99.90;;;;;;5061447;28;20227;-88
2023/05/24 03:52:14;;;;;;;10.20;9.90;;;10.80;99.90;;;;;;5062887;28;20222;-89
2023/05/24 03:54:44;;;;;;;10.10;9.80;;;10.70;99.90;;;;;;5062502;28;20333;-87
2023/05/24 03:57:22;;;;;;;9.80;9.50;;;10.70;99.90;;;;;;5066329;28;20242;-88
2023/05/24 03:59:51;;;;;;;10.00;9.70;;;10.70;99.90;;;;;;5064430;28;20222;-89
2023/05/24 04:02:20;;;;;;;10.00;9.70;;;10.80;99.90;;;;;;5062226;28;20234;-88
2023/05/24 04:07:37;;;;;;;9.87;9.57;;;10.80;99.90;;;;;;5072532;28;20280;-89
2023/05/24 04:10:06;;;;;;;9.90;9.60;;;10.70;99.90;;;;;;5070054;28;20294;-89
2023/05/24 04:12:39;;;;;;;10.20;9.90;;;10.70;99.90;;;;;;5082564;28;20226;-88
2023/05/24 04:15:10;;;;;;;9.83;9.53;;;10.80;99.90;;;;;;5082788;28;20315;-88
2023/05/24 04:17:37;;;;;;;9.90;9.60;;;10.80;99.90;;;;;;5082204;28;20230;-89
2023/05/24 04:20:15;;;;;;;10.27;9.97;;;10.80;99.90;;;;;;5081404;28;20233;-89
2023/05/24 04:22:45;;;;;;;10.07;9.77;;;10.80;99.90;;;;;;5082164;28;20256;-90
2023/05/24 04:25:15;;;;;;;10.13;9.83;;;10.80;99.90;;;;;;5082165;28;20237;-90
2023/05/24 04:27:43;;;;;;;10.20;9.90;;;10.80;99.90;;;;;;5082042;28;20234;-89
2023/05/24 04:30:14;;;;;;;10.40;10.10;;;10.80;99.90;;;;;;5080823;28;20233;-88
2023/05/24 04:32:43;;;;;;;9.73;9.43;;;10.80;99.90;;;;;;5091463;22;20233;-77
2023/05/24 04:35:12;;;;;;;10.07;9.77;;;10.80;99.90;;;;;;5076016;28;20219;-79
2023/05/24 04:37:40;;;;;;;10.07;9.77;;;10.80;99.90;;;;;;5062564;28;20223;-79
2023/05/24 04:40:10;;;;;;;10.30;10.00;;;10.90;99.90;;;;;;5062228;28;20235;-79
2023/05/24 04:42:38;;;;;;;10.20;9.90;;;10.90;99.90;;;;;;5062105;28;20244;-79
2023/05/24 04:45:06;;;;;;;10.13;9.83;;;10.90;99.90;;;;;;5065447;28;20326;-80
2023/05/24 04:47:34;;;;;;;9.90;9.60;;;10.90;99.90;;;;;;5065753;28;20241;-78
2023/05/24 04:50:02;;;;;;;9.97;9.67;;;10.90;99.90;;;;;;5063765;28;20230;-79
2023/05/24 04:52:32;;;;;;;10.03;9.73;;;10.90;99.90;;;;;;5065492;28;20239;-79
2023/05/24 04:55:00;;;;;;;9.83;9.53;;;11.00;99.90;;;;;;5078604;28;20242;-78
2023/05/24 04:57:27;;;;;;;10.00;9.70;;;11.00;99.90;;;;;;5083045;28;20324;-79
2023/05/24 04:59:55;;;;;;;10.10;9.80;;;11.00;99.90;;;;;;5090979;28;20238;-78
2023/05/24 05:02:25;;;;;;;10.30;10.00;;;11.00;99.90;;;;;;5083104;28;20226;-78
2023/05/24 05:04:55;;;;;;;9.90;9.60;;;11.00;99.90;;;;;;5084009;28;20234;-79
2023/05/24 05:07:24;;;;;;;9.80;9.50;;;11.00;99.90;;;;;;5084134;28;20222;-78
2023/05/24 05:09:55;;;;;;;9.87;9.57;;;11.00;99.90;;;;;;5083561;28;20294;-78
2023/05/24 05:12:22;;;;;;;9.67;9.37;;;10.90;99.90;;;;;;5084315;28;20230;-79
2023/05/24 05:14:50;;;;;;;10.07;9.77;;;10.90;99.90;;;;;;5089942;28;20220;-78
2023/05/24 05:17:19;;;;;;;10.00;9.70;;;11.00;99.90;;;;;;5084531;28;20230;-78
2023/05/24 05:19:46;;;;;;;9.70;9.40;;;11.10;99.90;;;;;;5083082;28;20248;-78
2023/05/24 05:22:15;;;;;;;9.60;9.30;;;11.20;99.90;;;;;;5086369;28;20238;-79
2023/05/24 05:24:42;;;;;;;9.50;9.20;;;11.20;99.90;;;;;;5099116;28;20217;-78
2023/05/24 05:27:11;;;;;;;9.50;9.20;;;11.20;99.90;;;;;;5097134;28;20246;-78
2023/05/24 05:29:41;;;;;;;9.60;9.30;;;11.20;99.90;;;;;;5093650;28;20258;-78
2023/05/24 05:32:10;;;;;;;9.40;9.10;;;11.20;99.90;;;;;;5085384;28;20245;-78
2023/05/24 05:34:38;;;;;;;9.30;9.00;;;11.20;99.90;;;;;;5085409;28;20234;-79
2023/05/24 05:37:06;;;;;;;9.57;9.27;;;11.20;99.90;;;;;;5084748;28;20292;-80
2023/05/24 05:39:34;;;;;;;9.73;9.43;;;11.30;99.90;;;;;;5075616;28;20384;-78
2023/05/24 05:42:02;;;;;;;9.67;9.37;;;11.30;99.90;;;;;;5086059;28;20265;-79
2023/05/24 05:44:32;;;;;;;9.60;9.30;;;11.20;99.90;;;;;;5085508;28;20257;-81
2023/05/24 05:47:00;;;;;;;9.63;9.33;;;11.30;99.90;;;;;;5084513;28;20260;-81
2023/05/24 05:49:28;;;;;;;9.57;9.27;;;11.30;99.90;;;;;;5086418;28;20222;-81
2023/05/24 05:51:57;;;;;;;9.33;9.03;;;11.40;99.90;;;;;;5087308;28;20984;-81
2023/05/24 05:54:27;;;;;;;9.37;9.07;;;11.40;99.90;;;;;;5094161;28;20226;-81
2023/05/24 05:56:56;;;;;;;9.07;8.83;;;11.40;99.90;;;;;;5096694;28;20284;-80
2023/05/24 05:59:24;;;;;;;9.30;9.00;;;11.40;99.90;;;;;;5090181;28;20231;-81
2023/05/24 06:01:55;;;;;;;9.00;8.80;;;11.40;99.90;;;;;;5081215;28;20297;-81
2023/05/24 06:04:23;;;;;;;9.20;8.90;;;11.50;99.90;;;;;;5081854;28;20256;-81
2023/05/24 06:06:53;;;;;;;9.40;9.10;;;11.40;99.90;;;;;;5084424;28;20240;-81
2023/05/24 06:09:24;;;;;;;9.37;9.07;;;11.50;99.90;;;;;;5083570;28;20326;-81
2023/05/24 06:11:56;;;;;;;8.90;8.70;;;11.50;99.90;;;;;;5083944;28;20241;-80
2023/05/24 06:14:25;;;;;;;8.87;8.67;;;11.50;99.90;;;;;;5083804;28;20283;-81
2023/05/24 06:16:57;;;;;;;8.93;8.73;;;11.40;99.90;;;;;;5084308;28;20233;-81
2023/05/24 06:19:33;;;;;;;9.27;8.97;;;11.50;99.90;;;;;;5082849;28;20347;-81
2023/05/24 06:22:02;;;;;;;9.20;8.90;;;11.50;99.90;;;;;;5082693;28;20233;-81
2023/05/24 06:24:33;;;;;;;9.33;9.03;;;11.60;99.90;;;;;;5074892;28;20265;-81
2023/05/24 06:27:01;;;;;;;9.30;9.00;;;11.60;99.90;;;;;;5083827;28;20217;-81
2023/05/24 06:29:30;;;;;;;8.90;8.70;;;11.70;99.90;;;;;;5082769;28;20282;-81
2023/05/24 06:32:09;;;;;;;9.40;9.10;;;11.70;99.90;;;;;;5083985;28;20233;-82
2023/05/24 06:34:38;;;;;;;9.50;9.20;;;11.70;99.90;;;;;;5080698;28;20250;-81
2023/05/24 06:37:09;;;;;;;9.47;9.17;;;11.70;99.90;;;;;;5077871;28;20245;-81
2023/05/24 06:39:36;;;;;;;9.60;9.30;;;11.80;99.90;;;;;;5082854;28;20222;-83
2023/05/24 06:42:05;;;;;;;9.53;9.23;;;11.80;99.90;;;;;;5083163;28;20238;-80
2023/05/24 06:44:33;;;;;;;9.60;9.30;;;11.80;99.90;;;;;;5067659;28;20235;-81
2023/05/24 06:47:15;;;;;;;9.70;9.40;;;11.80;99.90;;;;;;5080458;28;20229;-81
2023/05/24 06:49:43;;;;;;;9.80;9.50;;;11.80;99.90;;;;;;5074164;28;20241;-81
2023/05/24 06:52:12;;;;;;;9.80;9.50;;;11.70;99.90;;;;;;5082284;28;20325;-82
2023/05/24 06:54:41;;;;;;;9.50;9.20;;;11.70;99.90;;;;;;5083164;28;20233;-81
2023/05/24 06:57:11;;;;;;;9.33;9.03;;;11.80;99.90;;;;;;5083819;28;20225;-81
2023/05/24 06:59:40;;;;;;;9.30;9.00;;;11.80;99.90;;;;;;5083159;28;20261;-80
2023/05/24 07:02:11;;;;;;;9.20;8.90;;;11.70;99.90;;;;;;5082831;28;20231;-82
2023/05/24 07:04:39;;;;;;;8.80;8.60;;;11.80;99.90;;;;;;5083391;28;20222;-81
2023/05/24 07:07:11;;;;;;;8.87;8.67;;;11.80;99.90;;;;;;5082786;28;20236;-81
2023/05/24 07:09:41;;;;;;;8.73;8.53;;;11.80;99.90;;;;;;5088596;28;20244;-78
2023/05/24 07:12:09;;;;;;;9.33;9.03;;;11.70;99.90;;;;;;5098731;28;20226;-81
2023/05/24 07:14:37;;;;;;;8.80;8.60;;;11.60;99.90;;;;;;5090307;28;21248;-81
2023/05/24 07:17:07;;;;;;;8.73;8.53;;;11.80;99.90;;;;;;5084904;28;20252;-82
2023/05/24 07:19:39;;;;;;;9.47;9.17;;;11.70;99.90;;;;;;5082197;28;20230;-81
2023/05/24 07:22:07;;;;;;;9.40;9.10;;;11.70;99.90;;;;;;5074431;28;20270;-81
2023/05/24 07:24:35;;;;;;;9.60;9.30;;;11.80;99.90;;;;;;5081200;28;20285;-81
2023/05/24 07:27:05;;;;;;;9.60;9.30;;;11.90;99.90;;;;;;5081996;28;20234;-81
2023/05/24 07:29:34;;;;;;;9.00;8.80;;;12.10;99.90;;;;;;5080809;28;20233;-81
2023/05/24 07:32:04;;;;;;;9.13;8.83;;;12.20;99.90;;;;;;5074996;28;20262;-80
2023/05/24 07:34:33;;;;;;;9.57;9.27;;;12.20;99.90;;;;;;5081794;28;20226;-81
2023/05/24 07:37:05;;;;;;;9.40;9.10;;;12.30;99.90;;;;;;5078670;28;20297;-81
2023/05/24 07:39:33;;;;;;;8.90;8.70;;;12.20;99.90;;;;;;5086397;28;20215;-82
2023/05/24 07:42:01;;;;;;;9.17;8.87;;;12.20;99.90;;;;;;5078074;28;20288;-83
2023/05/24 07:44:31;;;;;;;9.40;9.10;;;12.30;99.90;;;;;;5085189;28;20261;-82
2023/05/24 07:47:01;;;;;;;9.53;9.23;;;12.40;99.90;;;;;;5092322;28;20230;-81
2023/05/24 07:49:29;;;;;;;9.40;9.10;;;12.40;99.90;;;;;;5086523;28;20226;-80
2023/05/24 07:51:59;;;;;;;9.43;9.13;;;12.50;99.90;;;;;;5074943;28;20230;-81
2023/05/24 07:54:32;;;;;;;9.70;9.40;;;12.50;99.90;;;;;;5072807;28;20234;-81
2023/05/24 07:57:00;;;;;;;9.70;9.40;;;12.40;99.90;;;;;;5077464;28;20230;-81
2023/05/24 07:59:28;;;;;;;9.60;9.30;;;12.40;99.90;;;;;;5084224;28;20285;-82
2023/05/24 08:02:00;;;;;;;9.80;9.50;;;12.40;99.90;;;;;;5083998;28;20242;-84
2023/05/24 08:04:28;;;;;;;9.53;9.23;;;12.40;99.90;;;;;;5085286;28;20352;-82
2023/05/24 08:06:56;;;;;;;9.60;9.30;;;12.40;99.90;;;;;;5084908;28;20242;-83
2023/05/24 08:09:26;;;;;;;9.73;9.43;;;12.40;99.90;;;;;;5083982;28;20226;-83
2023/05/24 08:12:03;;;;;;;9.50;9.20;;;12.40;99.90;;;;;;5083107;28;20238;-83
2023/05/24 08:14:34;;;;;;;9.30;9.00;;;12.50;99.90;;;;;;5083055;28;20225;-82
2023/05/24 08:17:04;;;;;;;9.00;8.80;;;12.50;99.90;;;;;;5084455;28;20234;-83
2023/05/24 08:19:34;;;;;;;9.33;9.03;;;12.50;99.90;;;;;;5069572;28;20273;-83
2023/05/24 08:22:04;;;;;;;9.47;9.17;;;12.60;99.90;;;;;;5078688;28;20238;-81
2023/05/24 08:24:32;;;;;;;9.53;9.23;;;12.60;99.90;;;;;;5087171;28;20237;-81
2023/05/24 08:29:48;;;;;;;9.57;9.27;;;12.60;99.90;;;;;;5085138;28;20232;-80
2023/05/24 08:32:19;;;;;;;9.57;9.27;;;12.60;99.90;;;;;;5075254;28;20238;-80
2023/05/24 08:34:48;;;;;;;9.53;9.23;;;12.40;99.90;;;;;;5097162;28;20236;-80
2023/05/24 08:37:19;;;;;;;9.50;9.20;;;12.40;99.90;;;;;;5101328;28;20254;-79
2023/05/24 08:39:46;;;;;;;9.50;9.20;;;12.40;99.90;;;;;;5101748;28;20225;-81
2023/05/24 08:42:25;;;;;;;9.20;8.90;;;12.50;99.90;;;;;;5093886;28;20238;-80
2023/05/24 08:45:04;;;;;;;9.40;9.10;;;12.50;99.90;;;;;;5088735;28;20298;-80
2023/05/24 08:47:32;;;;;;;9.20;8.90;;;12.60;99.90;;;;;;5087724;28;20233;-80
2023/05/24 08:50:02;;;;;;;8.87;8.67;;;12.60;99.90;;;;;;5087180;28;20226;-82
2023/05/24 08:52:32;;;;;;;8.87;8.67;;;12.60;99.90;;;;;;5085253;28;20285;-81
2023/05/24 08:55:01;;;;;;;9.50;9.20;;;12.50;99.90;;;;;;5080060;28;20317;-80
2023/05/24 08:57:39;;;;;;;9.37;9.07;;;12.60;99.90;;;;;;5092089;28;20226;-80
2023/05/24 09:00:10;;;;;;;8.90;8.70;;;12.40;99.90;;;;;;5087551;28;20279;-80
2023/05/24 09:02:40;;;;;;;8.83;8.63;;;12.40;99.90;;;;;;5087474;28;20233;-80
2023/05/24 09:05:20;;;;;;;8.80;8.60;;;12.50;99.90;;;;;;5086306;28;20234;-80
2023/05/24 09:07:57;;;;;;;8.90;8.70;;;12.50;99.90;;;;;;5080063;28;20324;-81
2023/05/24 09:10:25;;;;;;;9.00;8.80;;;12.30;99.90;;;;;;5090143;28;20213;-80
2023/05/24 09:13:04;;;;;;;8.80;8.60;;;12.20;99.90;;;;;;5090522;28;20273;-83
2023/05/24 09:15:31;;;;;;;8.90;8.70;;;12.20;99.90;;;;;;5085354;28;20230;-83
2023/05/24 09:18:01;;;;;;;8.77;8.57;;;12.30;99.90;;;;;;5084689;28;20230;-81
2023/05/24 09:20:30;;;;;;;9.10;8.83;;;12.30;99.90;;;;;;5084992;28;20233;-82
2023/05/24 09:22:59;;;;;;;9.30;9.00;;;12.30;99.90;;;;;;5085107;28;20230;-82
2023/05/24 09:25:29;;;;;;;8.70;8.50;;;12.40;99.90;;;;;;5085734;28;20233;-82
2023/05/24 09:28:08;;;;;;;8.80;8.60;;;12.40;99.90;;;;;;5083211;28;20235;-81
2023/05/24 09:30:36;;;;;;;8.90;8.70;;;12.30;99.90;;;;;;5081924;28;20257;-82
2023/05/24 09:33:07;;;;;;;9.00;8.80;;;12.10;99.90;;;;;;5084332;28;20317;-82
2023/05/24 09:35:36;;;;;;;8.90;8.70;;;12.00;99.90;;;;;;5077305;28;20249;-82
2023/05/24 09:38:05;;;;;;;8.80;8.60;;;12.10;99.90;;;;;;5084341;28;20313;-82
2023/05/24 09:40:35;;;;;;;9.20;8.90;;;12.10;99.90;;;;;;5085171;28;20230;-82
2023/05/24 09:43:14;;;;;;;9.00;8.80;;;12.20;99.90;;;;;;5085937;28;20278;-84
2023/05/24 09:45:52;;;;;;;8.97;8.77;;;12.30;99.90;;;;;;5086884;28;20229;-82
2023/05/24 09:48:21;;;;;;;8.83;8.63;;;12.30;99.90;;;;;;5085672;28;20281;-82
2023/05/24 09:51:08;;;;;;;8.80;8.60;;;12.30;99.90;;;;;;5085625;28;20258;-83
2023/05/24 09:53:37;;;;;;;8.63;8.43;;;12.30;99.90;;;;;;5068352;28;20249;-81
2023/05/24 09:56:07;;;;;;;8.60;8.40;;;12.40;99.90;;;;;;5064750;28;20237;-81
2023/05/24 09:58:41;;;;;;;8.30;8.10;;;12.50;99.90;;;;;;5066190;28;20242;-80
2023/05/24 10:01:17;;;;;;;8.97;8.77;;;12.50;99.90;;;;;;5078994;28;20246;-81
2023/05/24 10:03:53;;;;;;;9.17;8.87;;;12.40;99.90;;;;;;5076335;28;20227;-81
2023/05/24 10:06:22;;;;;;;8.60;8.40;;;12.50;99.90;;;;;;5068743;28;20230;-81
2023/05/24 10:08:53;;;;;;;8.70;8.50;;;12.50;99.90;;;;;;5066013;28;20235;-81
2023/05/24 10:11:22;;;;;;;8.90;8.70;;;12.50;99.90;;;;;;5065372;28;20218;-81
2023/05/24 10:14:01;;;;;;;9.30;9.00;;;12.70;99.90;;;;;;5065427;28;20246;-82
2023/05/24 10:16:30;;;;;;;8.70;8.50;;;12.80;99.90;;;;;;5067283;28;20290;-81
2023/05/24 10:19:00;;;;;;;9.10;8.80;;;13.00;99.90;;;;;;5066893;28;20234;-81
2023/05/24 10:21:31;;;;;;;8.93;8.73;;;13.00;99.90;;;;;;5070205;28;20237;-80
2023/05/24 10:24:05;;;;;;;9.20;8.90;;;13.00;99.90;;;;;;5064381;28;20231;-81
2023/05/24 10:26:37;;;;;;;9.27;8.97;;;13.10;99.90;;;;;;5066385;28;20239;-82
2023/05/24 10:32:11;;;;;;;9.27;8.97;;;13.20;99.90;;;;;;5063152;28;20226;-81
2023/05/24 10:40:43;;;;;;;9.20;8.90;;;13.70;99.90;;;;;;5084231;28;20222;-84
2023/05/24 10:43:19;;;;;;;9.10;8.80;;;14.00;99.90;;;;;;5085453;28;20234;-84
2023/05/24 10:46:01;;;;;;;9.70;9.40;;;14.20;99.90;;;;;;5086462;28;20237;-84
2023/05/24 10:49:13;;;;;;;9.33;9.03;;;14.20;99.90;;;;;;5086213;28;20242;-84
2023/05/24 10:52:00;;;;;;;9.23;8.93;;;14.40;99.90;;;;;;5089771;27;20230;-84
2023/05/24 10:54:38;;;;;;;9.57;9.27;;;14.30;99.90;;;;;;5082698;28;20233;-84
2023/05/24 11:02:42;;;;;;;8.90;8.70;;;14.80;99.90;;;;;;5095164;28;20261;-84
2023/05/24 11:08:16;;;;;;;9.20;8.90;;;14.90;99.90;;;;;;5086066;28;20256;-85
2023/05/24 11:13:40;;;;;;;9.40;9.10;;;14.90;99.90;;;;;;5084410;28;20226;-84
2023/05/24 11:16:49;;;;;;;9.55;9.25;;;15.10;99.90;;;;;;5085415;28;20222;-85
2023/05/24 11:19:51;;;;;;;9.70;9.40;;;15.20;99.90;;;;;;5086450;28;20230;-84
2023/05/24 11:22:27;;;;;;;9.57;9.27;;;15.10;99.90;;;;;;5085955;28;20256;-84
2023/05/24 11:25:06;;;;;;;9.48;9.18;;;15.20;99.90;;;;;;5085880;28;20234;-84
2023/05/24 11:27:54;;;;;;;9.43;9.13;;;15.30;99.90;;;;;;5089477;28;20256;-85
2023/05/24 11:30:36;;;;;;;9.68;9.38;;;15.40;99.90;;;;;;5088108;28;20229;-84
2023/05/24 11:38:53;;;;;;;9.63;9.32;;;15.40;99.90;;;;;;5084877;28;20261;-85
2023/05/24 11:41:31;;;;;;;9.85;9.55;;;15.50;99.90;;;;;;5085866;28;20241;-84
2023/05/24 11:44:10;;;;;;;9.90;9.60;;;15.70;99.90;;;;;;5085959;28;20233;-84
2023/05/24 11:46:58;;;;;;;9.43;9.13;;;15.70;99.90;;;;;;5086242;28;20230;-84
2023/05/24 11:49:33;;;;;;;9.35;9.05;;;15.90;99.90;;;;;;5086031;28;20256;-84
2023/05/24 11:52:22;;;;;;;9.05;8.80;;;16.10;99.90;;;;;;5092014;28;20217;-85
2023/05/24 11:54:55;;;;;;;8.90;8.70;;;16.30;99.90;;;;;;5088500;28;20229;-84
2023/05/24 11:57:46;;;;;;;9.27;8.98;;;16.20;99.90;;;;;;5091045;28;20237;-84
2023/05/24 14:01:44;;;;;;;10.48;10.18;;;21.50;99.90;;;;;;5078561;28;20238;-83
2023/05/24 14:04:29;;;;;;;10.20;9.90;;;21.40;99.90;;;;;;5076374;28;20230;-84
2023/05/24 14:07:14;;;;;;;10.25;9.95;;;21.30;99.90;;;;;;5077803;28;20231;-84
2023/05/24 14:16:37;;;;;;;9.50;9.20;;;21.60;99.90;;;;;;5007361;28;20224;-84
2023/05/24 16:40:53;;;;;;;9.75;9.45;;;19.20;99.90;;;;;;5027856;28;20224;-84
2023/05/24 16:43:23;;;;;;;9.70;9.40;;;19.20;99.90;;;;;;5032553;28;20304;-83
2023/05/24 16:45:52;;;;;;;9.70;9.40;;;19.30;99.90;;;;;;5033507;28;20315;-85
2023/05/24 16:48:26;;;;;;;9.30;9.00;;;19.30;99.90;;;;;;5027599;28;20275;-84
2023/05/24 16:51:00;;;;;;;9.25;8.98;;;19.30;99.90;;;;;;5028222;28;20242;-84
2023/05/24 16:53:38;;;;;;;8.88;8.68;;;19.30;99.90;;;;;;5028455;28;20232;-85
2023/05/24 16:56:07;;;;;;;9.60;9.30;;;19.40;99.90;;;;;;5028938;28;20262;-84
2023/05/24 16:58:36;;;;;;;9.40;9.10;;;19.50;99.90;;;;;;5028148;28;20242;-84
2023/05/24 17:01:06;;;;;;;9.70;9.40;;;19.80;99.90;;;;;;5027794;28;20239;-84
2023/05/24 17:03:36;;;;;;;9.50;9.20;;;20.10;99.90;;;;;;5027742;28;20262;-84
2023/05/24 17:06:05;;;;;;;9.55;9.25;;;20.50;99.90;;;;;;5028234;28;20220;-84
2023/05/24 17:08:44;;;;;;;9.57;9.27;;;21.00;99.90;;;;;;5028236;28;20224;-85
2023/05/24 17:11:15;;;;;;;9.90;9.60;;;21.30;99.90;;;;;;5029548;28;20228;-85
2023/05/24 17:13:44;;;;;;;9.40;9.10;;;21.70;99.90;;;;;;5029746;28;20228;-85
2023/05/24 17:16:12;;;;;;;9.18;8.98;;;21.90;99.90;;;;;;5030253;28;20236;-85
2023/05/24 17:18:41;;;;;;;9.57;9.27;;;22.00;99.90;;;;;;5036286;28;20223;-82
2023/05/24 17:21:11;;;;;;;9.25;8.95;;;21.90;99.90;;;;;;5030807;28;20231;-83
2023/05/24 17:23:43;;;;;;;9.57;9.27;;;22.00;99.90;;;;;;5032332;28;20224;-83
2023/05/24 17:26:13;;;;;;;8.73;8.52;;;22.00;99.90;;;;;;5028198;28;20251;-82
2023/05/24 17:28:42;;;;;;;9.50;9.20;;;21.90;99.90;;;;;;5028459;28;20276;-84
2023/05/24 17:31:09;;;;;;;9.00;8.80;;;21.80;99.90;;;;;;5029566;28;20263;-83
2023/05/24 17:33:38;;;;;;;9.05;8.85;;;21.90;99.90;;;;;;5028255;28;20240;-82
2023/05/24 17:36:08;;;;;;;8.93;8.73;;;22.00;99.90;;;;;;5027522;28;20247;-82
2023/05/24 17:38:37;;;;;;;9.55;9.25;;;21.90;99.90;;;;;;5027173;28;20220;-82
2023/05/24 17:41:09;;;;;;;9.40;9.10;;;21.80;99.90;;;;;;5027872;28;20228;-85
2023/05/24 17:43:39;;;;;;;9.10;8.90;;;21.40;99.90;;;;;;5035427;28;20252;-83
2023/05/24 17:46:07;;;;;;;9.05;8.85;;;21.40;99.90;;;;;;5029416;28;20236;-84
2023/05/24 17:48:37;;;;;;;9.55;9.25;;;21.30;99.90;;;;;;5027120;28;20410;-85
2023/05/24 17:51:07;;;;;;;8.98;8.77;;;21.40;99.90;;;;;;5027253;28;20227;-86
2023/05/24 17:53:36;;;;;;;9.57;9.27;;;21.20;99.90;;;;;;5026952;28;20290;-86
2023/05/24 17:56:11;;;;;;;9.63;9.32;;;21.30;99.90;;;;;;5026941;28;20221;-87
2023/05/24 17:58:41;;;;;;;9.80;9.50;;;21.20;99.90;;;;;;5009775;28;20280;-89
2023/05/24 18:01:11;;;;;;;9.50;9.20;;;21.20;99.90;;;;;;5023748;28;20238;-86
2023/05/24 18:03:41;;;;;;;9.48;9.18;;;21.10;99.90;;;;;;5026988;28;20270;-86
2023/05/24 18:06:09;;;;;;;9.30;9.00;;;21.10;99.90;;;;;;5026780;28;20235;-86
2023/05/24 18:08:41;;;;;;;9.48;9.18;;;21.10;99.90;;;;;;5026871;28;20239;-86
2023/05/24 18:13:59;;;;;;;9.63;9.32;;;21.10;99.90;;;;;;5032202;28;20247;-87
2023/05/24 18:16:27;;;;;;;9.80;9.50;;;21.00;99.90;;;;;;5019790;28;20233;-87
2023/05/24 18:18:57;;;;;;;9.50;9.20;;;20.70;99.90;;;;;;5007569;28;20221;-87
2023/05/24 18:24:13;;;;;;;9.50;9.20;;;20.30;99.90;;;;;;5007271;28;20224;-88